Time;durP1;ratioP1;P1;durP2;ratioP2;P2;SDS_P1;SDS_P2;PMS_P1;PMS_P2;Temp;Humidity;BMP_temperature;BMP_pressure;BME280_temperature;BME280_humidity;BME280_pressure;Samples;Min_cycle;Max_cycle;Signal;HPM_P1;HPM_P2
2023/07/01 00:00:59;;;;;;;10.20;3.40;;;17.30;99.90;;;;;;5038083;28;20400;-79
2023/07/01 00:03:24;;;;;;;12.13;3.47;;;17.30;99.90;;;;;;5038171;28;20053;-78
2023/07/01 00:05:50;;;;;;;10.25;3.63;;;17.30;99.90;;;;;;5036455;28;20056;-79
2023/07/01 00:08:16;;;;;;;11.90;3.80;;;17.30;99.90;;;;;;5042715;28;20473;-80
2023/07/01 00:10:41;;;;;;;9.95;3.13;;;17.20;99.90;;;;;;5041183;28;20206;-79
2023/07/01 00:13:07;;;;;;;9.20;3.22;;;17.30;99.90;;;;;;5039452;28;20136;-80
2023/07/01 00:15:33;;;;;;;10.38;3.50;;;17.30;99.90;;;;;;5041631;28;20507;-79
2023/07/01 00:17:59;;;;;;;8.65;3.05;;;17.40;99.90;;;;;;5039164;28;20119;-78
2023/07/01 00:20:26;;;;;;;7.57;2.95;;;17.30;99.90;;;;;;5036606;28;20958;-80
2023/07/01 00:22:53;;;;;;;11.38;3.33;;;17.30;99.90;;;;;;5035989;28;20112;-80
2023/07/01 00:25:19;;;;;;;7.47;3.20;;;17.30;99.90;;;;;;5038767;28;20112;-80
2023/07/01 00:27:44;;;;;;;10.77;3.58;;;17.30;99.90;;;;;;5036432;28;20136;-81
2023/07/01 00:30:10;;;;;;;10.77;3.40;;;17.30;99.90;;;;;;5040740;28;20069;-79
2023/07/01 00:32:36;;;;;;;17.52;3.60;;;17.40;99.90;;;;;;5040497;28;20037;-80
2023/07/01 00:35:02;;;;;;;10.73;3.28;;;17.40;99.90;;;;;;5035881;28;20025;-80
2023/07/01 00:37:28;;;;;;;9.30;3.00;;;17.40;99.90;;;;;;5026912;28;20036;-81
2023/07/01 00:39:53;;;;;;;9.00;2.80;;;17.30;99.90;;;;;;5042628;28;20060;-81
2023/07/01 00:42:19;;;;;;;9.30;2.65;;;17.40;99.90;;;;;;5038307;28;20068;-79
2023/07/01 00:44:44;;;;;;;5.22;2.70;;;17.30;99.90;;;;;;5039275;28;20040;-79
2023/07/01 00:47:10;;;;;;;6.15;2.28;;;17.30;99.90;;;;;;5039078;28;22297;-80
2023/07/01 00:49:37;;;;;;;10.35;2.95;;;17.30;99.90;;;;;;5032224;28;20049;-79
2023/07/01 00:52:05;;;;;;;12.90;2.85;;;17.30;99.90;;;;;;5029186;28;20040;-79
2023/07/01 00:54:30;;;;;;;10.50;3.40;;;17.30;99.90;;;;;;5054795;28;20400;-80
2023/07/01 00:56:56;;;;;;;8.27;2.92;;;17.30;99.90;;;;;;5055390;28;20087;-79
2023/07/01 00:59:22;;;;;;;9.93;3.85;;;17.30;99.90;;;;;;5041904;28;20037;-79
2023/07/01 01:01:51;;;;;;;9.75;3.60;;;17.40;99.90;;;;;;5041617;28;20032;-78
2023/07/01 01:04:31;;;;;;;10.18;3.05;;;17.40;99.90;;;;;;5037110;28;20491;-79
2023/07/01 01:07:12;;;;;;;13.55;3.35;;;17.40;99.90;;;;;;5033197;28;20033;-78
2023/07/01 01:09:41;;;;;;;9.25;2.90;;;17.40;99.90;;;;;;5039113;28;20044;-79
2023/07/01 01:12:10;;;;;;;7.97;2.67;;;17.40;99.90;;;;;;5038082;28;20067;-79
2023/07/01 01:14:38;;;;;;;12.70;2.92;;;17.40;99.90;;;;;;5040304;28;20029;-79
2023/07/01 01:17:09;;;;;;;9.60;2.70;;;17.40;99.90;;;;;;5039486;28;20048;-78
2023/07/01 01:19:44;;;;;;;6.68;2.58;;;17.40;99.90;;;;;;5026744;28;20075;-78
2023/07/01 01:22:17;;;;;;;12.60;2.60;;;17.50;99.90;;;;;;5035895;28;20034;-79
2023/07/01 01:24:46;;;;;;;10.15;3.03;;;17.50;99.90;;;;;;5028013;28;20030;-78
2023/07/01 01:27:19;;;;;;;9.05;2.92;;;17.50;99.90;;;;;;5033969;28;20033;-79
2023/07/01 01:29:45;;;;;;;9.45;2.88;;;17.50;99.90;;;;;;5037748;28;20033;-78
2023/07/01 01:32:10;;;;;;;10.50;2.80;;;17.50;99.90;;;;;;5035796;28;20047;-78
2023/07/01 01:34:36;;;;;;;12.43;3.40;;;17.50;99.90;;;;;;5022827;28;20104;-78
2023/07/01 01:37:06;;;;;;;8.90;3.20;;;17.60;99.90;;;;;;5036153;28;20032;-78
2023/07/01 01:39:39;;;;;;;10.00;3.05;;;17.60;99.90;;;;;;5038601;28;20063;-79
2023/07/01 01:42:11;;;;;;;10.30;3.13;;;17.60;99.90;;;;;;5036636;28;20041;-78
2023/07/01 01:44:45;;;;;;;11.48;2.75;;;17.60;99.90;;;;;;5037832;28;20060;-78
2023/07/01 01:47:15;;;;;;;9.43;2.78;;;17.60;99.90;;;;;;5036721;28;20557;-79
2023/07/01 01:49:42;;;;;;;4.63;2.30;;;17.60;99.90;;;;;;5032010;28;20106;-78
2023/07/01 01:52:10;;;;;;;8.50;3.00;;;17.60;99.90;;;;;;5028184;28;20045;-78
2023/07/01 01:54:37;;;;;;;9.27;2.55;;;17.60;99.90;;;;;;5029729;28;20429;-79
2023/07/01 01:57:04;;;;;;;9.82;3.03;;;17.60;99.90;;;;;;5037011;28;20102;-78
2023/07/01 01:59:30;;;;;;;7.20;2.90;;;17.60;99.90;;;;;;5035796;28;20151;-79
2023/07/01 02:01:55;;;;;;;8.57;2.83;;;17.70;99.90;;;;;;5037187;28;20052;-79
2023/07/01 02:04:21;;;;;;;8.98;2.80;;;17.70;99.90;;;;;;5037285;28;20053;-78
2023/07/01 02:06:46;;;;;;;10.77;2.75;;;17.70;99.90;;;;;;5037755;28;20036;-79
2023/07/01 02:09:12;;;;;;;10.98;2.92;;;17.60;99.90;;;;;;5038219;28;20021;-79
2023/07/01 02:11:38;;;;;;;8.55;2.65;;;17.60;99.90;;;;;;5038232;28;20029;-78
2023/07/01 02:14:03;;;;;;;12.75;3.22;;;17.60;99.90;;;;;;5035925;28;20522;-77
2023/07/01 02:16:29;;;;;;;10.07;3.15;;;17.70;99.90;;;;;;5037400;28;20438;-79
2023/07/01 02:18:55;;;;;;;13.45;3.22;;;17.60;99.90;;;;;;5038758;28;20033;-79
2023/07/01 02:21:20;;;;;;;8.45;3.10;;;17.60;99.90;;;;;;5037556;28;20460;-80
2023/07/01 02:23:46;;;;;;;6.38;2.83;;;17.70;99.90;;;;;;5035031;28;20040;-78
2023/07/01 02:26:11;;;;;;;8.27;3.00;;;17.70;99.90;;;;;;5035681;28;20025;-78
2023/07/01 02:28:37;;;;;;;8.30;3.33;;;17.70;99.90;;;;;;5030336;28;20699;-78
2023/07/01 02:31:03;;;;;;;9.35;3.15;;;17.70;99.90;;;;;;5053192;28;20040;-79
2023/07/01 02:33:28;;;;;;;10.60;3.30;;;17.70;99.90;;;;;;5038961;28;20468;-78
2023/07/01 02:35:54;;;;;;;10.85;3.38;;;17.60;99.90;;;;;;5039405;28;20013;-78
2023/07/01 02:38:20;;;;;;;11.13;2.90;;;17.60;99.90;;;;;;5036983;28;20624;-78
2023/07/01 02:40:45;;;;;;;11.40;3.60;;;17.60;99.90;;;;;;5036409;28;20025;-78
2023/07/01 02:43:11;;;;;;;12.43;3.55;;;17.60;99.90;;;;;;5038786;28;20059;-78
2023/07/01 02:45:36;;;;;;;10.18;2.90;;;17.60;99.90;;;;;;5037316;28;20547;-79
2023/07/01 02:48:02;;;;;;;8.40;3.03;;;17.60;99.90;;;;;;5030213;28;20108;-78
2023/07/01 02:50:29;;;;;;;6.57;2.92;;;17.50;99.90;;;;;;5035461;28;20124;-79
2023/07/01 02:52:54;;;;;;;6.60;2.67;;;17.60;99.90;;;;;;5039647;28;20106;-80
2023/07/01 02:55:20;;;;;;;10.07;2.85;;;17.60;99.90;;;;;;5053404;28;20029;-78
2023/07/01 02:57:45;;;;;;;9.35;3.05;;;17.60;99.90;;;;;;5032106;28;20068;-78
2023/07/01 03:00:13;;;;;;;7.32;2.95;;;17.60;99.90;;;;;;5041205;28;20029;-80
2023/07/01 03:02:39;;;;;;;8.07;2.85;;;17.60;99.90;;;;;;5032486;28;20044;-79
2023/07/01 03:05:07;;;;;;;8.65;2.70;;;17.60;99.90;;;;;;5030319;28;20033;-80
2023/07/01 03:07:33;;;;;;;9.77;3.15;;;17.60;99.90;;;;;;5039445;28;20037;-78
2023/07/01 03:09:58;;;;;;;5.75;2.40;;;17.60;99.90;;;;;;5034510;28;20038;-79
2023/07/01 03:12:24;;;;;;;6.97;2.47;;;17.60;99.90;;;;;;5028978;28;20128;-78
2023/07/01 03:14:50;;;;;;;8.23;2.80;;;17.60;99.90;;;;;;5037819;28;20115;-79
2023/07/01 03:17:15;;;;;;;7.90;2.25;;;17.60;99.90;;;;;;5041951;28;20037;-80
2023/07/01 03:19:41;;;;;;;4.28;2.00;;;17.60;99.90;;;;;;5042251;28;20021;-79
2023/07/01 03:22:07;;;;;;;4.57;1.83;;;17.60;99.90;;;;;;5038061;28;20021;-78
2023/07/01 03:24:33;;;;;;;3.92;2.15;;;17.60;99.90;;;;;;5041055;28;20029;-79
2023/07/01 03:27:01;;;;;;;6.20;2.03;;;17.60;99.90;;;;;;5032293;28;20487;-80
2023/07/01 03:29:27;;;;;;;10.15;2.33;;;17.50;99.90;;;;;;5029450;28;20122;-79
2023/07/01 03:31:52;;;;;;;5.43;2.20;;;17.50;99.90;;;;;;5039143;28;20492;-80
2023/07/01 03:34:22;;;;;;;5.63;1.70;;;17.50;99.90;;;;;;5036165;28;20079;-79
2023/07/01 03:36:47;;;;;;;3.78;1.85;;;17.50;99.90;;;;;;5041866;28;20381;-79
2023/07/01 03:39:13;;;;;;;3.60;1.70;;;17.50;99.90;;;;;;5042439;28;20032;-80
2023/07/01 03:41:38;;;;;;;3.60;1.48;;;17.50;99.90;;;;;;5041483;28;20093;-80
2023/07/01 03:44:04;;;;;;;2.13;1.40;;;17.60;99.90;;;;;;5058240;28;20329;-79
2023/07/01 03:46:29;;;;;;;3.88;1.67;;;17.60;99.90;;;;;;5042122;28;20025;-79
2023/07/01 03:48:55;;;;;;;5.22;1.63;;;17.50;99.90;;;;;;5043565;28;20771;-80
2023/07/01 03:51:21;;;;;;;5.55;1.70;;;17.50;99.90;;;;;;5042115;28;20056;-79
2023/07/01 03:53:46;;;;;;;3.47;1.70;;;17.50;99.90;;;;;;5038502;28;20025;-79
2023/07/01 03:56:12;;;;;;;2.72;1.73;;;17.60;99.90;;;;;;5040759;28;20079;-79
2023/07/01 03:58:38;;;;;;;5.13;1.40;;;17.60;99.90;;;;;;5040735;28;20504;-79
2023/07/01 04:01:05;;;;;;;5.72;1.48;;;17.50;99.90;;;;;;5038614;28;20060;-80
2023/07/01 04:03:33;;;;;;;3.72;1.42;;;17.50;99.90;;;;;;5037963;28;20110;-79
2023/07/01 04:05:59;;;;;;;3.63;1.35;;;17.50;99.90;;;;;;5041003;28;20040;-80
2023/07/01 04:08:25;;;;;;;3.17;1.30;;;17.50;99.90;;;;;;5041500;28;20388;-79
2023/07/01 04:10:50;;;;;;;4.47;1.15;;;17.50;99.90;;;;;;5036881;28;20022;-80
2023/07/01 04:13:16;;;;;;;3.53;1.20;;;17.50;99.90;;;;;;5033649;28;20091;-81
2023/07/01 04:15:42;;;;;;;5.68;1.25;;;17.50;99.90;;;;;;5026174;28;20538;-81
2023/07/01 04:18:07;;;;;;;3.30;1.13;;;17.40;99.90;;;;;;5039904;28;20071;-80
2023/07/01 04:20:33;;;;;;;2.80;1.35;;;17.50;99.90;;;;;;5037524;28;20067;-79
2023/07/01 04:22:58;;;;;;;3.83;1.38;;;17.40;99.90;;;;;;5041369;28;20044;-79
2023/07/01 04:25:24;;;;;;;4.53;1.42;;;17.40;99.90;;;;;;5041584;28;20714;-81
2023/07/01 04:27:49;;;;;;;3.92;1.30;;;17.40;99.90;;;;;;5043579;28;20079;-80
2023/07/01 04:30:16;;;;;;;3.47;1.23;;;17.40;99.90;;;;;;5042880;28;20060;-80
2023/07/01 04:32:42;;;;;;;3.67;1.02;;;17.40;99.90;;;;;;5042519;28;20052;-81
2023/07/01 04:35:07;;;;;;;2.75;1.08;;;17.40;99.90;;;;;;5040099;28;20029;-81
2023/07/01 04:37:33;;;;;;;2.55;0.98;;;17.40;99.90;;;;;;5039835;28;20079;-81
2023/07/01 04:39:59;;;;;;;3.72;0.95;;;17.50;99.90;;;;;;5036902;28;20400;-81
2023/07/01 04:42:24;;;;;;;4.38;1.00;;;17.50;99.90;;;;;;5040994;28;20491;-81
2023/07/01 04:44:55;;;;;;;6.18;1.20;;;17.60;99.90;;;;;;5041973;28;20037;-81
2023/07/01 04:47:22;;;;;;;3.13;1.00;;;17.60;99.90;;;;;;5042943;28;20099;-81
2023/07/01 04:49:48;;;;;;;3.20;0.90;;;17.70;99.90;;;;;;5040400;28;20646;-80
2023/07/01 04:52:15;;;;;;;3.10;0.98;;;17.80;99.90;;;;;;5040152;28;20401;-81
2023/07/01 04:54:40;;;;;;;2.60;0.98;;;17.80;99.90;;;;;;5033890;28;20014;-81
2023/07/01 04:57:06;;;;;;;7.28;1.20;;;17.90;99.90;;;;;;5022230;28;20469;-80
2023/07/01 04:59:31;;;;;;;2.80;0.98;;;18.00;99.90;;;;;;5031892;28;20017;-81
2023/07/01 05:01:57;;;;;;;3.58;0.75;;;18.00;99.90;;;;;;5042735;28;20362;-82
2023/07/01 05:04:23;;;;;;;4.03;0.80;;;18.00;99.90;;;;;;5041088;28;20104;-81
2023/07/01 05:06:48;;;;;;;3.17;0.80;;;18.00;99.90;;;;;;5042102;28;20039;-81
2023/07/01 05:09:14;;;;;;;2.72;0.60;;;18.00;99.90;;;;;;5043047;28;20094;-81
2023/07/01 05:11:39;;;;;;;2.97;0.80;;;18.10;99.90;;;;;;5042968;28;20583;-82
2023/07/01 05:14:05;;;;;;;4.15;0.77;;;18.20;99.90;;;;;;5036625;28;20038;-81
2023/07/01 05:16:31;;;;;;;1.25;0.68;;;18.30;99.90;;;;;;5030566;28;20025;-82
2023/07/01 05:18:58;;;;;;;3.35;0.60;;;18.40;99.90;;;;;;5026724;28;20097;-82
2023/07/01 05:21:24;;;;;;;1.48;0.60;;;18.30;99.90;;;;;;5056404;28;20035;-81
2023/07/01 05:23:49;;;;;;;0.75;0.50;;;18.30;99.90;;;;;;5040869;28;20042;-81
2023/07/01 05:26:15;;;;;;;1.38;0.60;;;18.40;99.90;;;;;;5042942;28;20032;-82
2023/07/01 05:28:41;;;;;;;2.50;0.60;;;18.50;99.90;;;;;;5038718;28;20071;-81
2023/07/01 05:31:07;;;;;;;0.93;0.57;;;18.60;99.90;;;;;;5041117;28;20040;-81
2023/07/01 05:33:32;;;;;;;1.38;0.60;;;18.60;99.90;;;;;;5037802;28;20480;-82
2023/07/01 05:35:58;;;;;;;3.00;0.68;;;18.60;99.90;;;;;;5035129;28;20017;-82
2023/07/01 05:38:23;;;;;;;2.80;0.80;;;18.60;99.90;;;;;;5023258;28;20024;-82
2023/07/01 05:40:49;;;;;;;1.10;0.50;;;18.50;99.90;;;;;;5041037;28;20029;-82
2023/07/01 05:43:14;;;;;;;2.60;0.57;;;18.50;99.90;;;;;;5033047;28;20045;-80
2023/07/01 05:45:40;;;;;;;6.60;2.63;;;18.50;99.90;;;;;;5051748;28;20677;-81
2023/07/01 05:48:06;;;;;;;1.75;0.60;;;18.50;99.90;;;;;;5032161;28;20052;-81
2023/07/01 05:50:31;;;;;;;2.28;0.70;;;18.50;99.90;;;;;;5033111;28;20043;-82
2023/07/01 05:52:57;;;;;;;1.75;0.60;;;18.50;99.90;;;;;;5041602;28;20036;-81
2023/07/01 05:55:22;;;;;;;2.08;0.50;;;18.70;99.90;;;;;;5032411;28;20025;-81
2023/07/01 05:57:48;;;;;;;1.88;0.60;;;18.90;99.90;;;;;;5040917;28;20433;-81
2023/07/01 06:00:14;;;;;;;1.23;0.60;;;19.10;99.90;;;;;;5040125;28;20025;-80
2023/07/01 06:02:40;;;;;;;2.47;0.60;;;19.40;99.90;;;;;;5039164;28;20036;-82
2023/07/01 06:05:07;;;;;;;2.00;0.60;;;19.50;99.90;;;;;;5031015;28;20079;-81
2023/07/01 06:07:32;;;;;;;33.78;20.08;;;19.60;99.90;;;;;;5039777;28;20439;-81
2023/07/01 06:09:58;;;;;;;2.70;0.90;;;19.50;99.90;;;;;;5038570;28;20159;-82
2023/07/01 06:12:24;;;;;;;6.25;5.07;;;19.30;99.90;;;;;;5039512;28;20053;-82
2023/07/01 06:14:49;;;;;;;4.53;1.15;;;18.90;99.90;;;;;;5041247;28;20078;-81
2023/07/01 06:17:15;;;;;;;2.15;0.90;;;18.60;99.90;;;;;;5039846;28;20044;-82
2023/07/01 06:19:40;;;;;;;3.50;1.10;;;18.30;99.90;;;;;;5035008;28;20021;-81
2023/07/01 06:22:06;;;;;;;2.47;0.80;;;18.20;99.90;;;;;;5035959;28;20547;-79
2023/07/01 06:24:31;;;;;;;42.60;29.60;;;18.00;99.90;;;;;;5035232;28;20032;-79
2023/07/01 06:26:57;;;;;;;10.30;6.88;;;17.90;99.90;;;;;;5040296;28;20485;-81
2023/07/01 06:29:23;;;;;;;6.32;1.40;;;18.00;99.90;;;;;;5040860;28;20155;-82
2023/07/01 06:31:48;;;;;;;5.38;0.85;;;18.20;99.90;;;;;;5036047;28;20396;-82
2023/07/01 06:34:15;;;;;;;2.33;1.10;;;18.60;99.90;;;;;;5040272;28;20034;-83
2023/07/01 06:36:41;;;;;;;5.97;1.15;;;19.10;99.90;;;;;;5042466;28;20029;-81
2023/07/01 06:39:07;;;;;;;3.85;0.98;;;19.30;99.90;;;;;;5041029;28;20146;-82
2023/07/01 06:41:33;;;;;;;11.05;7.25;;;19.60;99.90;;;;;;5033780;28;20108;-82
2023/07/01 06:43:59;;;;;;;1.55;0.80;;;19.80;99.90;;;;;;5033538;28;20056;-83
2023/07/01 06:46:25;;;;;;;4.70;0.85;;;20.30;99.90;;;;;;5052052;28;20029;-82
2023/07/01 06:48:51;;;;;;;2.75;0.82;;;20.80;99.90;;;;;;5033897;28;20076;-84
2023/07/01 06:51:17;;;;;;;3.28;0.70;;;21.20;99.90;;;;;;5054439;28;20110;-83
2023/07/01 06:53:42;;;;;;;5.68;0.82;;;21.20;99.90;;;;;;5037875;28;20048;-82
2023/07/01 06:56:09;;;;;;;5.57;1.58;;;20.90;99.90;;;;;;5041135;28;20025;-82
2023/07/01 06:58:35;;;;;;;3.58;1.65;;;20.50;99.90;;;;;;5039425;28;20038;-82
2023/07/01 07:01:01;;;;;;;3.83;1.00;;;20.20;99.90;;;;;;5038443;28;20029;-83
2023/07/01 07:03:26;;;;;;;3.50;1.10;;;20.00;99.90;;;;;;5040165;28;20033;-84
2023/07/01 07:05:54;;;;;;;6.15;1.05;;;20.10;99.90;;;;;;5036032;28;20552;-83
2023/07/01 07:08:20;;;;;;;2.58;0.80;;;20.20;99.90;;;;;;5041193;28;20025;-92
2023/07/01 07:10:46;;;;;;;2.97;1.00;;;20.30;99.90;;;;;;5046208;28;20032;-88
2023/07/01 07:13:11;;;;;;;3.53;1.00;;;20.50;99.90;;;;;;5049967;28;20136;-90
2023/07/01 07:15:38;;;;;;;3.88;0.90;;;20.40;99.90;;;;;;5042407;28;20017;-91
2023/07/01 07:18:06;;;;;;;4.50;0.93;;;20.20;99.90;;;;;;5044899;28;20052;-84
2023/07/01 07:20:32;;;;;;;5.18;1.42;;;19.80;99.90;;;;;;5044216;28;20511;-89
2023/07/01 07:22:57;;;;;;;2.92;0.90;;;19.50;99.90;;;;;;5048247;28;20028;-90
2023/07/01 07:25:23;;;;;;;4.45;0.90;;;19.30;99.90;;;;;;5047819;28;20021;-90
2023/07/01 07:27:49;;;;;;;5.03;1.10;;;19.10;99.90;;;;;;5050883;28;20039;-90
2023/07/01 07:30:15;;;;;;;6.65;1.38;;;19.30;99.90;;;;;;5048727;28;20433;-92
2023/07/01 07:32:42;;;;;;;4.68;1.08;;;19.40;99.90;;;;;;5062745;28;20028;-90
2023/07/01 07:35:08;;;;;;;6.07;1.20;;;19.90;99.90;;;;;;5051430;28;20086;-91
2023/07/01 07:37:35;;;;;;;4.45;0.70;;;20.20;99.90;;;;;;5041182;28;20572;-91
2023/07/01 07:40:05;;;;;;;2.70;0.77;;;20.80;99.90;;;;;;5050777;28;20754;-92
2023/07/01 07:42:31;;;;;;;3.13;0.73;;;21.60;99.90;;;;;;5044001;28;20037;-92
2023/07/01 07:44:56;;;;;;;3.90;0.70;;;22.90;99.90;;;;;;5040821;28;20053;-88
2023/07/01 07:47:26;;;;;;;2.55;0.50;;;23.60;99.90;;;;;;5041054;28;20446;-92
2023/07/01 07:49:51;;;;;;;5.18;0.88;;;23.60;99.90;;;;;;5046459;28;20104;-90
2023/07/01 07:52:17;;;;;;;4.05;0.70;;;23.80;99.90;;;;;;5043547;28;20120;-85
2023/07/01 07:54:44;;;;;;;2.30;0.50;;;24.00;99.90;;;;;;5046395;28;20032;-91
2023/07/01 07:57:10;;;;;;;2.40;0.60;;;23.60;99.90;;;;;;5051026;28;20037;-90
2023/07/01 07:59:36;;;;;;;5.15;1.88;;;23.40;99.90;;;;;;5047503;28;20113;-89
2023/07/01 08:02:02;;;;;;;2.53;0.60;;;22.90;99.90;;;;;;5049798;28;20551;-90
2023/07/01 08:04:27;;;;;;;3.85;0.80;;;22.80;99.90;;;;;;5049236;28;20028;-90
2023/07/01 08:06:56;;;;;;;2.47;0.50;;;22.80;99.90;;;;;;5049303;28;20521;-90
2023/07/01 08:09:22;;;;;;;2.22;0.70;;;23.20;99.90;;;;;;5053862;28;20017;-90
2023/07/01 08:11:49;;;;;;;2.30;0.70;;;23.40;99.90;;;;;;5051477;28;20044;-91
2023/07/01 08:14:14;;;;;;;3.97;0.85;;;23.30;99.90;;;;;;5033367;28;20154;-92
2023/07/01 08:16:40;;;;;;;2.13;0.52;;;23.70;99.90;;;;;;5047172;28;20068;-92
2023/07/01 08:19:05;;;;;;;2.47;0.65;;;24.00;99.90;;;;;;5048599;28;20029;-91
2023/07/01 08:21:33;;;;;;;2.90;0.73;;;24.70;99.90;;;;;;5045123;28;20496;-88
2023/07/01 08:23:59;;;;;;;2.85;0.63;;;25.50;99.90;;;;;;5051252;28;20029;-92
2023/07/01 08:26:25;;;;;;;2.42;0.68;;;25.30;99.90;;;;;;5057897;28;20036;-92
2023/07/01 08:28:54;;;;;;;2.53;0.80;;;25.20;99.90;;;;;;5053722;28;20831;-92
2023/07/01 08:31:20;;;;;;;2.65;0.50;;;25.00;99.90;;;;;;5059943;28;20033;-91
2023/07/01 08:33:46;;;;;;;3.15;0.65;;;24.90;99.90;;;;;;5043522;28;20116;-92
2023/07/01 08:36:12;;;;;;;2.95;0.60;;;24.90;99.90;;;;;;5044358;28;20025;-87
2023/07/01 08:38:37;;;;;;;2.83;0.60;;;25.00;99.90;;;;;;5041167;28;20532;-88
2023/07/01 08:41:04;;;;;;;3.97;0.70;;;25.30;99.90;;;;;;5054321;28;20025;-90
2023/07/01 08:43:34;;;;;;;1.35;0.70;;;25.70;99.90;;;;;;5032285;28;20385;-89
2023/07/01 08:46:04;;;;;;;2.67;0.60;;;25.60;99.90;;;;;;5039229;28;20029;-89
2023/07/01 08:48:34;;;;;;;1.38;0.57;;;25.30;99.90;;;;;;5044584;28;20078;-88
2023/07/01 08:51:22;;;;;;;2.17;0.50;;;25.30;99.90;;;;;;5039281;28;20033;-90
2023/07/01 08:53:48;;;;;;;4.68;0.70;;;25.70;99.90;;;;;;5046390;28;20337;-89
2023/07/01 08:56:18;;;;;;;2.08;0.52;;;25.80;99.90;;;;;;5048439;28;20041;-92
2023/07/01 08:58:46;;;;;;;0.80;0.50;;;25.20;99.90;;;;;;5046455;28;20076;-92
2023/07/01 09:01:12;;;;;;;2.05;0.50;;;25.10;99.90;;;;;;5049441;28;20473;-88
2023/07/01 09:03:38;;;;;;;1.85;0.52;;;25.00;99.90;;;;;;5044981;28;20483;-89
2023/07/01 09:06:05;;;;;;;1.75;0.40;;;24.60;99.90;;;;;;5045784;28;20025;-88
2023/07/01 09:08:38;;;;;;;3.60;0.45;;;24.70;99.90;;;;;;5048565;28;20025;-88
2023/07/01 09:11:04;;;;;;;0.45;0.30;;;24.50;99.90;;;;;;5043827;28;20044;-90
2023/07/01 09:13:30;;;;;;;3.63;0.50;;;24.70;99.90;;;;;;5058644;28;20128;-90
2023/07/01 09:15:55;;;;;;;1.02;0.40;;;24.30;99.90;;;;;;5043212;28;20085;-89
2023/07/01 09:18:26;;;;;;;2.75;0.75;;;24.20;99.90;;;;;;5040328;28;20103;-89
2023/07/01 09:20:52;;;;;;;0.65;0.30;;;24.30;99.90;;;;;;5042516;28;20048;-90
2023/07/01 09:23:34;;;;;;;1.30;0.68;;;24.90;99.90;;;;;;5041851;28;20037;-88
2023/07/01 09:26:14;;;;;;;1.63;0.50;;;25.20;99.90;;;;;;5041581;28;20026;-88
2023/07/01 09:28:41;;;;;;;1.33;0.50;;;25.40;99.90;;;;;;5037188;28;20120;-87
2023/07/01 09:31:10;;;;;;;2.33;0.50;;;25.50;99.90;;;;;;5037622;28;20037;-90
2023/07/01 09:33:38;;;;;;;0.90;0.40;;;26.20;99.90;;;;;;5039547;28;20499;-87
2023/07/01 09:36:05;;;;;;;1.17;0.45;;;26.60;98.80;;;;;;5055301;28;20029;-88
2023/07/01 09:38:32;;;;;;;2.10;0.50;;;27.10;99.20;;;;;;5027465;28;20028;-88
2023/07/01 09:41:17;;;;;;;1.83;0.50;;;27.30;99.10;;;;;;5040191;28;20021;-89
2023/07/01 09:43:43;;;;;;;2.20;0.40;;;26.60;98.00;;;;;;5039313;28;20196;-89
2023/07/01 09:46:09;;;;;;;3.67;0.68;;;26.00;99.90;;;;;;5036144;28;20889;-82
2023/07/01 09:48:36;;;;;;;1.15;0.30;;;26.20;99.90;;;;;;5038866;28;20033;-88
2023/07/01 09:51:05;;;;;;;2.35;0.60;;;27.00;99.90;;;;;;5039496;28;20029;-87
2023/07/01 09:53:33;;;;;;;2.92;0.60;;;28.00;97.60;;;;;;5038718;28;20037;-88
2023/07/01 09:56:01;;;;;;;1.30;0.50;;;28.40;94.30;;;;;;5042587;28;20124;-85
2023/07/01 09:58:28;;;;;;;4.50;0.57;;;27.90;94.00;;;;;;5035938;28;20030;-91
2023/07/01 10:00:54;;;;;;;0.88;0.50;;;28.70;96.10;;;;;;5037051;28;20496;-87
2023/07/01 10:03:20;;;;;;;0.45;0.30;;;29.60;93.70;;;;;;5037445;28;20079;-87
2023/07/01 10:05:51;;;;;;;1.00;0.40;;;30.20;85.30;;;;;;5053916;28;20049;-88
2023/07/01 10:08:16;;;;;;;2.50;0.40;;;30.40;81.20;;;;;;5037468;28;20111;-87
2023/07/01 10:10:42;;;;;;;2.17;0.60;;;30.00;78.30;;;;;;5038592;28;20128;-86
2023/07/01 10:13:09;;;;;;;2.38;0.57;;;29.70;84.00;;;;;;4688044;28;9999966;-87
2023/07/01 10:15:38;;;;;;;1.63;0.50;;;29.00;85.30;;;;;;5035480;28;20028;-87
2023/07/01 10:18:21;;;;;;;1.30;0.43;;;28.30;85.70;;;;;;5027338;28;20022;-86
2023/07/01 10:20:47;;;;;;;1.58;0.60;;;28.10;89.40;;;;;;5033569;28;20033;-86
2023/07/01 10:23:13;;;;;;;1.52;0.80;;;27.60;90.90;;;;;;5037167;28;20037;-87
2023/07/01 10:25:40;;;;;;;2.15;0.80;;;27.60;92.10;;;;;;5042315;28;20467;-86
2023/07/01 10:28:07;;;;;;;1.73;0.80;;;27.50;94.10;;;;;;5041673;28;20403;-85
2023/07/01 10:30:42;;;;;;;3.80;0.80;;;27.30;93.00;;;;;;5034631;28;20029;-87
2023/07/01 10:33:27;;;;;;;2.67;1.00;;;26.80;93.30;;;;;;5043156;28;20085;-86
2023/07/01 10:36:06;;;;;;;1.80;0.85;;;26.00;93.50;;;;;;5051176;28;20110;-87
2023/07/01 10:38:34;;;;;;;2.25;1.20;;;25.60;95.30;;;;;;5034780;28;20112;-88
2023/07/01 10:41:00;;;;;;;2.15;1.10;;;25.60;96.90;;;;;;5035314;28;20079;-88
2023/07/01 10:43:39;;;;;;;3.20;1.02;;;25.50;98.20;;;;;;5039738;28;20083;-88
2023/07/01 10:46:05;;;;;;;2.70;1.08;;;25.20;97.50;;;;;;5037571;28;20069;-87
2023/07/01 10:48:31;;;;;;;3.15;1.02;;;24.80;98.50;;;;;;5032806;28;20554;-89
2023/07/01 10:51:06;;;;;;;2.50;1.00;;;24.40;99.70;;;;;;5034233;28;20106;-88
2023/07/01 10:53:56;;;;;;;2.75;1.33;;;23.80;99.90;;;;;;5034313;28;20059;-88
2023/07/01 10:56:22;;;;;;;2.40;1.15;;;23.20;99.90;;;;;;5040503;28;20037;-87
2023/07/01 10:59:16;;;;;;;2.03;1.20;;;22.80;99.90;;;;;;5029714;28;20570;-88
2023/07/01 11:01:44;;;;;;;2.67;1.23;;;22.40;99.90;;;;;;5031396;28;20078;-86
2023/07/01 11:04:09;;;;;;;2.50;0.90;;;22.80;99.90;;;;;;5037288;28;20037;-88
2023/07/01 11:06:46;;;;;;;1.80;1.10;;;23.00;99.90;;;;;;5057566;28;20047;-90
2023/07/01 11:09:13;;;;;;;2.17;1.10;;;23.00;99.90;;;;;;5041477;28;20029;-87
2023/07/01 11:11:39;;;;;;;1.20;0.60;;;23.00;99.90;;;;;;5040716;28;20550;-87
2023/07/01 11:14:10;;;;;;;2.05;0.88;;;23.10;99.90;;;;;;5031483;28;20038;-88
2023/07/01 11:16:37;;;;;;;1.30;0.90;;;23.20;99.90;;;;;;5045572;28;20033;-84
2023/07/01 11:19:09;;;;;;;2.22;0.98;;;23.40;99.90;;;;;;5044100;28;20037;-86
2023/07/01 11:21:36;;;;;;;1.73;0.80;;;24.20;99.90;;;;;;5040020;28;20463;-86
2023/07/01 11:24:07;;;;;;;2.00;0.93;;;25.70;97.10;;;;;;5042282;28;20060;-88
2023/07/01 11:26:33;;;;;;;;;;;27.40;93.10;;;;;;5046252;28;20017;-88
2023/07/01 11:29:00;;;;;;;2.72;0.90;;;29.20;79.80;;;;;;5046448;28;20399;-86
2023/07/01 11:31:33;;;;;;;4.93;1.27;;;30.90;68.90;;;;;;5039729;28;20032;-87
2023/07/01 11:33:59;;;;;;;1.65;1.00;;;31.70;62.90;;;;;;5040971;28;20035;-84
2023/07/01 11:36:37;;;;;;;1.80;1.00;;;31.40;64.30;;;;;;5044551;28;20256;-86
2023/07/01 11:39:09;;;;;;;4.75;1.10;;;30.30;64.80;;;;;;5037069;28;20029;-85
2023/07/01 11:41:36;;;;;;;3.38;0.82;;;30.30;67.60;;;;;;5037234;28;20451;-84
2023/07/01 11:44:07;;;;;;;2.90;1.10;;;30.30;70.10;;;;;;5025822;28;20504;-85
2023/07/01 11:46:34;;;;;;;1.65;0.95;;;29.90;62.40;;;;;;5041449;28;20098;-86
2023/07/01 11:49:16;;;;;;;2.20;1.10;;;29.40;67.70;;;;;;5054931;28;20112;-86
2023/07/01 11:51:47;;;;;;;1.85;1.00;;;28.60;66.30;;;;;;5050258;28;20056;-84
2023/07/01 11:54:14;;;;;;;2.05;1.30;;;28.00;68.10;;;;;;5033383;28;20175;-86
2023/07/01 11:56:40;;;;;;;2.10;1.23;;;27.20;70.00;;;;;;5051966;28;20801;-84
2023/07/01 11:59:06;;;;;;;3.47;1.65;;;26.60;76.50;;;;;;5035418;28;20037;-85
2023/07/01 12:01:31;;;;;;;4.65;1.67;;;26.50;77.10;;;;;;5051766;28;20373;-86
2023/07/01 12:03:57;;;;;;;4.22;2.20;;;27.10;72.50;;;;;;5035864;28;20040;-85
2023/07/01 12:06:24;;;;;;;4.07;1.90;;;27.30;68.60;;;;;;5036660;28;20044;-84
2023/07/01 12:08:55;;;;;;;4.00;2.28;;;27.30;71.00;;;;;;5020962;28;20092;-83
2023/07/01 12:11:22;;;;;;;2.88;2.15;;;27.00;67.90;;;;;;5028029;28;20037;-85
2023/07/01 12:13:48;;;;;;;3.03;2.35;;;26.50;72.00;;;;;;5038528;23;20308;-71
2023/07/01 12:16:15;;;;;;;3.63;2.20;;;26.70;72.80;;;;;;5031492;28;20044;-71
2023/07/01 12:18:40;;;;;;;5.38;2.40;;;27.10;72.00;;;;;;5019038;28;20524;-72
2023/07/01 12:21:06;;;;;;;4.03;2.17;;;27.00;71.30;;;;;;5026462;28;20273;-71
2023/07/01 12:23:44;;;;;;;2.28;1.90;;;27.30;72.70;;;;;;5016662;28;20111;-71
2023/07/01 12:26:11;;;;;;;4.90;2.40;;;26.80;72.40;;;;;;5017671;28;20484;-70
2023/07/01 12:28:40;;;;;;;2.97;1.77;;;26.50;75.40;;;;;;5015315;28;20029;-71
2023/07/01 12:31:07;;;;;;;2.70;1.90;;;27.00;83.10;;;;;;5015530;28;20468;-71
2023/07/01 12:33:35;;;;;;;5.13;1.88;;;28.30;82.60;;;;;;5012854;28;20061;-71
2023/07/01 12:36:01;;;;;;;5.13;1.80;;;29.80;74.90;;;;;;5016715;28;20637;-71
2023/07/01 12:38:28;;;;;;;3.50;1.80;;;30.80;69.30;;;;;;5015848;28;20112;-71
2023/07/01 12:40:55;;;;;;;3.83;2.00;;;30.70;63.90;;;;;;5015627;28;20038;-71
2023/07/01 12:43:27;;;;;;;3.47;2.00;;;30.00;64.20;;;;;;5017705;28;20444;-70
2023/07/01 12:45:53;;;;;;;2.97;2.03;;;28.50;65.00;;;;;;5019024;28;20032;-71